createdAt,value
2022-08-05T00:00:46.534Z,22.7
2022-08-05T00:14:36.018Z,22.5
2022-08-05T00:28:36.055Z,22.5
2022-08-05T00:42:36.612Z,22.2
2022-08-05T00:56:36.059Z,22.1
2022-08-05T01:10:36.051Z,22.0
2022-08-05T01:24:36.115Z,22.0
2022-08-05T01:38:36.075Z,22.0
2022-08-05T01:52:36.161Z,22.3
2022-08-05T02:06:38.065Z,22.4
2022-08-05T02:20:39.015Z,22.9
2022-08-05T02:34:36.234Z,22.5
2022-08-05T02:48:36.231Z,22.2
2022-08-05T03:02:36.221Z,22.0
2022-08-05T03:16:36.247Z,21.8
2022-08-05T03:30:36.251Z,21.4
2022-08-05T03:44:36.250Z,21.0
2022-08-05T03:59:46.630Z,20.9
2022-08-05T04:14:36.264Z,20.8
2022-08-05T04:30:36.249Z,21.1
2022-08-05T04:45:47.964Z,21.3
2022-08-05T05:00:36.267Z,21.6
2022-08-05T05:15:54.584Z,22.0
2022-08-05T05:30:36.287Z,22.7
2022-08-05T05:45:36.270Z,23.7
2022-08-05T06:00:36.299Z,23.9
2022-08-05T06:16:27.601Z,24.3
2022-08-05T06:30:36.318Z,27.1
2022-08-05T06:45:44.310Z,32.1
2022-08-05T07:00:36.324Z,34.0
2022-08-05T07:16:01.363Z,33.6
2022-08-05T07:30:38.640Z,34.6
2022-08-05T07:45:56.893Z,34.9
2022-08-05T08:00:36.451Z,32.2
2022-08-05T08:15:37.474Z,34.7
2022-08-05T08:30:39.299Z,35.1
2022-08-05T08:45:36.537Z,35.3
2022-08-05T09:00:36.576Z,36.0
2022-08-05T09:15:36.883Z,36.3
2022-08-05T09:30:36.817Z,36.1
2022-08-05T09:46:05.578Z,36.5
2022-08-05T10:00:36.705Z,35.8
2022-08-05T10:16:37.631Z,36.6
2022-08-05T10:32:51.249Z,36.6
2022-08-05T10:46:06.112Z,37.1
2022-08-05T11:02:06.264Z,37.3
2022-08-05T11:17:56.983Z,37.2
2022-08-05T11:33:06.121Z,36.9
2022-08-05T11:49:06.171Z,37.6
2022-08-05T12:04:06.175Z,37.2
2022-08-05T12:20:17.427Z,37.5
2022-08-05T12:35:06.315Z,37.9
2022-08-05T12:50:07.276Z,38.4
2022-08-05T13:05:06.526Z,38.6
2022-08-05T13:20:06.618Z,39.6
2022-08-05T13:35:06.603Z,39.3
2022-08-05T13:50:09.641Z,38.5
2022-08-05T14:05:11.349Z,38.6
2022-08-05T14:20:07.706Z,39.1
2022-08-05T14:35:06.737Z,38.9
2022-08-05T14:50:12.776Z,40.1
2022-08-05T15:05:08.680Z,39.5
2022-08-05T15:20:07.549Z,39.0
2022-08-05T15:35:10.095Z,38.8
2022-08-05T15:51:06.832Z,39.3
2022-08-05T16:06:06.846Z,38.1
2022-08-05T16:21:06.894Z,38.2
2022-08-05T16:36:06.932Z,38.4
2022-08-05T16:51:08.863Z,38.4
2022-08-05T17:06:06.969Z,36.4
2022-08-05T17:21:06.984Z,33.5
2022-08-05T17:36:32.590Z,32.8
2022-08-05T17:51:09.310Z,32.2
2022-08-05T18:06:11.653Z,31.7
2022-08-05T18:21:13.026Z,30.6
2022-08-05T18:36:10.522Z,30.4
2022-08-05T18:52:03.643Z,29.8
2022-08-05T19:06:13.684Z,28.7
2022-08-05T19:20:07.294Z,28.1
2022-08-05T19:34:07.340Z,27.6
2022-08-05T19:48:07.372Z,27.2
2022-08-05T20:02:07.331Z,27.4
2022-08-05T20:16:07.327Z,27.4
2022-08-05T20:30:07.332Z,27.5
2022-08-05T20:44:17.969Z,27.5
2022-08-05T20:58:07.683Z,27.3
2022-08-05T21:12:11.109Z,27.2
2022-08-05T21:26:08.313Z,26.8
2022-08-05T21:40:13.233Z,26.4
2022-08-05T21:54:07.834Z,25.8
2022-08-05T22:08:07.873Z,25.7
2022-08-05T22:22:07.852Z,25.8
2022-08-05T22:36:08.023Z,25.8
2022-08-05T22:50:18.814Z,25.2
2022-08-05T23:04:08.115Z,24.7
2022-08-05T23:18:11.558Z,25.4
2022-08-05T23:32:08.105Z,25.6
2022-08-05T23:46:19.677Z,24.9
